sensor_id;sensor_type;location;lat;lon;timestamp;P1;durP1;ratioP1;P2;durP2;ratioP2
84864;SDS011;75122;41.650;25.368;2024-01-11T00:02:35;5.68;;;3.17;;
84864;SDS011;75122;41.650;25.368;2024-01-11T00:07:27;11.18;;;3.58;;
84864;SDS011;75122;41.650;25.368;2024-01-11T00:12:17;6.23;;;3.17;;
84864;SDS011;75122;41.650;25.368;2024-01-11T00:17:08;15.53;;;5.47;;
84864;SDS011;75122;41.650;25.368;2024-01-11T00:19:34;9.48;;;4.93;;
84864;SDS011;75122;41.650;25.368;2024-01-11T00:24:24;7.57;;;3.90;;
84864;SDS011;75122;41.650;25.368;2024-01-11T00:29:15;6.50;;;4.40;;
84864;SDS011;75122;41.650;25.368;2024-01-11T00:31:41;11.07;;;4.38;;
84864;SDS011;75122;41.650;25.368;2024-01-11T00:36:31;5.07;;;2.97;;
84864;SDS011;75122;41.650;25.368;2024-01-11T00:38:58;8.25;;;3.42;;
84864;SDS011;75122;41.650;25.368;2024-01-11T00:43:49;5.53;;;3.25;;
84864;SDS011;75122;41.650;25.368;2024-01-11T00:48:40;8.10;;;2.87;;
84864;SDS011;75122;41.650;25.368;2024-01-11T00:53:31;4.30;;;3.00;;
84864;SDS011;75122;41.650;25.368;2024-01-11T00:55:57;5.53;;;2.67;;
84864;SDS011;75122;41.650;25.368;2024-01-11T01:00:48;6.97;;;3.42;;
84864;SDS011;75122;41.650;25.368;2024-01-11T01:03:14;8.30;;;3.22;;
84864;SDS011;75122;41.650;25.368;2024-01-11T01:05:41;8.48;;;3.13;;
84864;SDS011;75122;41.650;25.368;2024-01-11T01:08:07;8.10;;;3.10;;
84864;SDS011;75122;41.650;25.368;2024-01-11T01:12:58;5.93;;;3.27;;
84864;SDS011;75122;41.650;25.368;2024-01-11T01:17:48;10.40;;;3.07;;
84864;SDS011;75122;41.650;25.368;2024-01-11T01:22:39;8.10;;;3.13;;
84864;SDS011;75122;41.650;25.368;2024-01-11T01:27:30;6.03;;;2.35;;
84864;SDS011;75122;41.650;25.368;2024-01-11T01:32:21;3.60;;;2.43;;
84864;SDS011;75122;41.650;25.368;2024-01-11T01:37:12;4.38;;;2.13;;
84864;SDS011;75122;41.650;25.368;2024-01-11T01:42:03;4.85;;;2.53;;
84864;SDS011;75122;41.650;25.368;2024-01-11T01:46:55;5.77;;;2.87;;
84864;SDS011;75122;41.650;25.368;2024-01-11T01:49:21;3.35;;;2.40;;
84864;SDS011;75122;41.650;25.368;2024-01-11T01:51:47;3.65;;;2.03;;
84864;SDS011;75122;41.650;25.368;2024-01-11T01:54:14;10.38;;;4.05;;
84864;SDS011;75122;41.650;25.368;2024-01-11T01:56:40;10.75;;;3.90;;
84864;SDS011;75122;41.650;25.368;2024-01-11T02:01:31;5.35;;;2.97;;
84864;SDS011;75122;41.650;25.368;2024-01-11T02:03:58;7.85;;;4.05;;
84864;SDS011;75122;41.650;25.368;2024-01-11T02:08:53;7.63;;;3.22;;
84864;SDS011;75122;41.650;25.368;2024-01-11T02:11:21;7.05;;;3.35;;
84864;SDS011;75122;41.650;25.368;2024-01-11T02:13:49;7.00;;;3.20;;
84864;SDS011;75122;41.650;25.368;2024-01-11T02:16:15;8.57;;;4.03;;
84864;SDS011;75122;41.650;25.368;2024-01-11T02:21:06;5.73;;;2.67;;
84864;SDS011;75122;41.650;25.368;2024-01-11T02:23:34;6.57;;;3.10;;
84864;SDS011;75122;41.650;25.368;2024-01-11T02:26:06;6.40;;;3.38;;
84864;SDS011;75122;41.650;25.368;2024-01-11T02:30:57;5.40;;;3.65;;
84864;SDS011;75122;41.650;25.368;2024-01-11T02:35:48;17.63;;;8.35;;
84864;SDS011;75122;41.650;25.368;2024-01-11T02:40:39;17.88;;;8.32;;
84864;SDS011;75122;41.650;25.368;2024-01-11T02:45:39;10.43;;;3.83;;
84864;SDS011;75122;41.650;25.368;2024-01-11T02:48:05;5.53;;;3.55;;
84864;SDS011;75122;41.650;25.368;2024-01-11T02:50:30;6.32;;;3.08;;
84864;SDS011;75122;41.650;25.368;2024-01-11T02:52:56;5.45;;;3.65;;
84864;SDS011;75122;41.650;25.368;2024-01-11T02:57:46;5.43;;;2.63;;
84864;SDS011;75122;41.650;25.368;2024-01-11T03:02:37;6.70;;;2.75;;
84864;SDS011;75122;41.650;25.368;2024-01-11T03:09:55;4.65;;;3.15;;
84864;SDS011;75122;41.650;25.368;2024-01-11T03:12:21;8.52;;;4.28;;
84864;SDS011;75122;41.650;25.368;2024-01-11T03:14:47;10.80;;;5.30;;
84864;SDS011;75122;41.650;25.368;2024-01-11T03:17:13;10.13;;;4.50;;
84864;SDS011;75122;41.650;25.368;2024-01-11T03:19:41;13.77;;;4.68;;
84864;SDS011;75122;41.650;25.368;2024-01-11T03:22:06;5.93;;;2.80;;
84864;SDS011;75122;41.650;25.368;2024-01-11T03:24:32;5.78;;;3.75;;
84864;SDS011;75122;41.650;25.368;2024-01-11T03:29:23;8.25;;;3.63;;
84864;SDS011;75122;41.650;25.368;2024-01-11T03:34:14;5.33;;;3.63;;
84864;SDS011;75122;41.650;25.368;2024-01-11T03:39:05;4.28;;;3.22;;
84864;SDS011;75122;41.650;25.368;2024-01-11T03:43:56;7.30;;;4.00;;
84864;SDS011;75122;41.650;25.368;2024-01-11T03:46:21;13.60;;;4.82;;
84864;SDS011;75122;41.650;25.368;2024-01-11T03:48:47;9.70;;;4.68;;
84864;SDS011;75122;41.650;25.368;2024-01-11T03:53:38;5.82;;;3.55;;
84864;SDS011;75122;41.650;25.368;2024-01-11T03:56:03;8.23;;;4.43;;
84864;SDS011;75122;41.650;25.368;2024-01-11T04:00:55;8.93;;;4.05;;
84864;SDS011;75122;41.650;25.368;2024-01-11T04:05:45;7.97;;;3.53;;
84864;SDS011;75122;41.650;25.368;2024-01-11T04:10:36;7.37;;;3.57;;
84864;SDS011;75122;41.650;25.368;2024-01-11T04:13:02;8.85;;;2.72;;
84864;SDS011;75122;41.650;25.368;2024-01-11T04:17:53;5.67;;;3.17;;
84864;SDS011;75122;41.650;25.368;2024-01-11T04:20:18;9.15;;;3.92;;
84864;SDS011;75122;41.650;25.368;2024-01-11T04:22:43;5.03;;;2.67;;
84864;SDS011;75122;41.650;25.368;2024-01-11T04:25:09;6.30;;;3.45;;
84864;SDS011;75122;41.650;25.368;2024-01-11T04:27:35;6.03;;;2.88;;
84864;SDS011;75122;41.650;25.368;2024-01-11T04:32:25;6.37;;;3.20;;
84864;SDS011;75122;41.650;25.368;2024-01-11T04:37:16;10.97;;;5.80;;
84864;SDS011;75122;41.650;25.368;2024-01-11T04:39:42;7.22;;;3.65;;
84864;SDS011;75122;41.650;25.368;2024-01-11T04:42:08;8.43;;;3.55;;
84864;SDS011;75122;41.650;25.368;2024-01-11T04:44:33;9.52;;;4.00;;
84864;SDS011;75122;41.650;25.368;2024-01-11T04:49:25;8.10;;;3.85;;
84864;SDS011;75122;41.650;25.368;2024-01-11T04:51:50;10.75;;;5.40;;
84864;SDS011;75122;41.650;25.368;2024-01-11T04:56:41;8.27;;;4.78;;
84864;SDS011;75122;41.650;25.368;2024-01-11T04:59:07;11.43;;;5.72;;
84864;SDS011;75122;41.650;25.368;2024-01-11T05:01:32;14.75;;;6.85;;
84864;SDS011;75122;41.650;25.368;2024-01-11T05:06:23;10.70;;;6.53;;
84864;SDS011;75122;41.650;25.368;2024-01-11T05:08:50;14.55;;;4.85;;
84864;SDS011;75122;41.650;25.368;2024-01-11T05:11:20;9.65;;;3.47;;
84864;SDS011;75122;41.650;25.368;2024-01-11T05:13:48;8.18;;;4.63;;
84864;SDS011;75122;41.650;25.368;2024-01-11T05:16:20;8.23;;;4.18;;
84864;SDS011;75122;41.650;25.368;2024-01-11T05:18:53;8.95;;;5.53;;
84864;SDS011;75122;41.650;25.368;2024-01-11T05:21:20;11.57;;;5.55;;
84864;SDS011;75122;41.650;25.368;2024-01-11T05:23:46;11.15;;;5.28;;
84864;SDS011;75122;41.650;25.368;2024-01-11T05:26:13;8.82;;;4.20;;
84864;SDS011;75122;41.650;25.368;2024-01-11T05:28:40;10.70;;;5.38;;
84864;SDS011;75122;41.650;25.368;2024-01-11T05:31:08;10.95;;;6.03;;
84864;SDS011;75122;41.650;25.368;2024-01-11T05:33:38;10.32;;;5.95;;
84864;SDS011;75122;41.650;25.368;2024-01-11T05:36:03;16.30;;;6.10;;
84864;SDS011;75122;41.650;25.368;2024-01-11T05:40:55;31.30;;;11.48;;
84864;SDS011;75122;41.650;25.368;2024-01-11T05:43:21;27.38;;;11.77;;
84864;SDS011;75122;41.650;25.368;2024-01-11T05:45:47;22.67;;;11.10;;
84864;SDS011;75122;41.650;25.368;2024-01-11T05:48:12;13.40;;;7.25;;
84864;SDS011;75122;41.650;25.368;2024-01-11T05:50:38;18.10;;;8.30;;
84864;SDS011;75122;41.650;25.368;2024-01-11T05:53:03;18.58;;;9.93;;
84864;SDS011;75122;41.650;25.368;2024-01-11T05:55:28;11.60;;;5.78;;
84864;SDS011;75122;41.650;25.368;2024-01-11T05:57:54;12.82;;;6.00;;
84864;SDS011;75122;41.650;25.368;2024-01-11T06:00:19;20.40;;;7.75;;
84864;SDS011;75122;41.650;25.368;2024-01-11T06:05:10;14.95;;;5.88;;
84864;SDS011;75122;41.650;25.368;2024-01-11T06:07:38;11.10;;;6.82;;
84864;SDS011;75122;41.650;25.368;2024-01-11T06:10:04;16.08;;;8.32;;
84864;SDS011;75122;41.650;25.368;2024-01-11T06:12:31;24.55;;;12.40;;
84864;SDS011;75122;41.650;25.368;2024-01-11T06:14:56;71.97;;;30.60;;
84864;SDS011;75122;41.650;25.368;2024-01-11T06:19:48;36.08;;;13.50;;
84864;SDS011;75122;41.650;25.368;2024-01-11T06:24:39;21.60;;;8.90;;
84864;SDS011;75122;41.650;25.368;2024-01-11T06:29:30;11.37;;;6.23;;
84864;SDS011;75122;41.650;25.368;2024-01-11T06:34:20;36.63;;;19.33;;
84864;SDS011;75122;41.650;25.368;2024-01-11T06:39:11;15.17;;;9.80;;
84864;SDS011;75122;41.650;25.368;2024-01-11T06:41:37;16.95;;;8.93;;
84864;SDS011;75122;41.650;25.368;2024-01-11T06:44:03;19.23;;;10.02;;
84864;SDS011;75122;41.650;25.368;2024-01-11T06:46:29;18.27;;;8.60;;
84864;SDS011;75122;41.650;25.368;2024-01-11T06:48:55;29.23;;;10.60;;
84864;SDS011;75122;41.650;25.368;2024-01-11T06:51:21;25.48;;;10.80;;
84864;SDS011;75122;41.650;25.368;2024-01-11T06:53:47;25.55;;;11.63;;
84864;SDS011;75122;41.650;25.368;2024-01-11T06:56:16;31.85;;;12.93;;
84864;SDS011;75122;41.650;25.368;2024-01-11T06:58:42;26.42;;;11.75;;
84864;SDS011;75122;41.650;25.368;2024-01-11T07:01:08;18.63;;;8.30;;
84864;SDS011;75122;41.650;25.368;2024-01-11T07:05:59;12.73;;;6.87;;
84864;SDS011;75122;41.650;25.368;2024-01-11T07:10:50;15.82;;;7.32;;
84864;SDS011;75122;41.650;25.368;2024-01-11T07:13:16;24.40;;;7.65;;
84864;SDS011;75122;41.650;25.368;2024-01-11T07:20:33;11.37;;;5.17;;
84864;SDS011;75122;41.650;25.368;2024-01-11T07:25:24;14.40;;;5.22;;
84864;SDS011;75122;41.650;25.368;2024-01-11T07:30:14;8.95;;;6.03;;
84864;SDS011;75122;41.650;25.368;2024-01-11T07:35:05;10.40;;;5.97;;
84864;SDS011;75122;41.650;25.368;2024-01-11T07:37:31;13.23;;;6.15;;
84864;SDS011;75122;41.650;25.368;2024-01-11T07:42:22;11.27;;;5.55;;
84864;SDS011;75122;41.650;25.368;2024-01-11T07:44:48;12.70;;;6.22;;
84864;SDS011;75122;41.650;25.368;2024-01-11T07:47:13;12.25;;;6.82;;
84864;SDS011;75122;41.650;25.368;2024-01-11T07:49:39;10.32;;;6.75;;
84864;SDS011;75122;41.650;25.368;2024-01-11T07:52:04;10.88;;;5.15;;
84864;SDS011;75122;41.650;25.368;2024-01-11T07:54:30;12.93;;;6.35;;
84864;SDS011;75122;41.650;25.368;2024-01-11T07:56:56;11.55;;;6.28;;
84864;SDS011;75122;41.650;25.368;2024-01-11T07:59:21;12.18;;;5.70;;
84864;SDS011;75122;41.650;25.368;2024-01-11T08:01:47;11.38;;;6.38;;
84864;SDS011;75122;41.650;25.368;2024-01-11T08:04:13;17.52;;;9.10;;
84864;SDS011;75122;41.650;25.368;2024-01-11T08:06:39;17.05;;;8.52;;
84864;SDS011;75122;41.650;25.368;2024-01-11T08:09:04;24.05;;;8.02;;
84864;SDS011;75122;41.650;25.368;2024-01-11T08:11:30;15.88;;;6.75;;
84864;SDS011;75122;41.650;25.368;2024-01-11T08:13:56;21.58;;;9.05;;
84864;SDS011;75122;41.650;25.368;2024-01-11T08:16:22;22.30;;;10.05;;
84864;SDS011;75122;41.650;25.368;2024-01-11T08:18:47;16.42;;;8.55;;
84864;SDS011;75122;41.650;25.368;2024-01-11T08:21:14;23.35;;;10.40;;
84864;SDS011;75122;41.650;25.368;2024-01-11T08:23:40;24.95;;;11.43;;
84864;SDS011;75122;41.650;25.368;2024-01-11T08:26:13;17.88;;;9.13;;
84864;SDS011;75122;41.650;25.368;2024-01-11T08:28:43;24.10;;;10.35;;
84864;SDS011;75122;41.650;25.368;2024-01-11T08:31:09;22.90;;;11.18;;
84864;SDS011;75122;41.650;25.368;2024-01-11T08:33:34;18.73;;;9.25;;
84864;SDS011;75122;41.650;25.368;2024-01-11T08:36:03;19.55;;;10.23;;
84864;SDS011;75122;41.650;25.368;2024-01-11T08:38:29;22.75;;;11.00;;
84864;SDS011;75122;41.650;25.368;2024-01-11T08:40:55;16.98;;;9.07;;
84864;SDS011;75122;41.650;25.368;2024-01-11T08:43:20;20.52;;;8.98;;
84864;SDS011;75122;41.650;25.368;2024-01-11T08:45:46;20.75;;;10.38;;
84864;SDS011;75122;41.650;25.368;2024-01-11T08:48:12;16.02;;;8.77;;
84864;SDS011;75122;41.650;25.368;2024-01-11T08:50:38;22.92;;;9.65;;
84864;SDS011;75122;41.650;25.368;2024-01-11T08:53:04;22.52;;;11.20;;
84864;SDS011;75122;41.650;25.368;2024-01-11T08:55:29;17.92;;;8.90;;
84864;SDS011;75122;41.650;25.368;2024-01-11T08:57:55;21.77;;;10.75;;
84864;SDS011;75122;41.650;25.368;2024-01-11T09:00:20;19.20;;;10.23;;
84864;SDS011;75122;41.650;25.368;2024-01-11T09:02:45;21.98;;;11.50;;
84864;SDS011;75122;41.650;25.368;2024-01-11T09:05:11;17.55;;;9.55;;
84864;SDS011;75122;41.650;25.368;2024-01-11T09:07:39;16.95;;;7.53;;
84864;SDS011;75122;41.650;25.368;2024-01-11T09:10:05;19.08;;;8.98;;
84864;SDS011;75122;41.650;25.368;2024-01-11T09:12:31;15.30;;;8.45;;
84864;SDS011;75122;41.650;25.368;2024-01-11T09:14:56;18.30;;;8.80;;
84864;SDS011;75122;41.650;25.368;2024-01-11T09:17:22;15.60;;;8.65;;
84864;SDS011;75122;41.650;25.368;2024-01-11T09:19:47;13.30;;;8.05;;
84864;SDS011;75122;41.650;25.368;2024-01-11T09:22:13;20.67;;;9.85;;
84864;SDS011;75122;41.650;25.368;2024-01-11T09:24:38;15.73;;;8.93;;
84864;SDS011;75122;41.650;25.368;2024-01-11T09:27:03;17.45;;;8.65;;
84864;SDS011;75122;41.650;25.368;2024-01-11T09:29:29;17.75;;;8.60;;
84864;SDS011;75122;41.650;25.368;2024-01-11T09:31:55;17.33;;;8.05;;
84864;SDS011;75122;41.650;25.368;2024-01-11T09:34:20;13.23;;;6.57;;
84864;SDS011;75122;41.650;25.368;2024-01-11T09:36:46;11.95;;;7.00;;
84864;SDS011;75122;41.650;25.368;2024-01-11T09:39:11;14.30;;;6.05;;
84864;SDS011;75122;41.650;25.368;2024-01-11T09:41:41;17.05;;;7.72;;
84864;SDS011;75122;41.650;25.368;2024-01-11T09:44:12;18.90;;;6.68;;
84864;SDS011;75122;41.650;25.368;2024-01-11T09:46:38;13.63;;;7.35;;
84864;SDS011;75122;41.650;25.368;2024-01-11T09:49:04;15.40;;;7.25;;
84864;SDS011;75122;41.650;25.368;2024-01-11T09:51:30;14.52;;;6.45;;
84864;SDS011;75122;41.650;25.368;2024-01-11T09:53:59;11.88;;;6.28;;
84864;SDS011;75122;41.650;25.368;2024-01-11T09:56:25;8.18;;;4.70;;
84864;SDS011;75122;41.650;25.368;2024-01-11T09:58:53;7.97;;;4.60;;
84864;SDS011;75122;41.650;25.368;2024-01-11T10:01:18;9.23;;;6.35;;
84864;SDS011;75122;41.650;25.368;2024-01-11T10:03:44;12.77;;;5.57;;
84864;SDS011;75122;41.650;25.368;2024-01-11T10:06:11;12.05;;;6.65;;
84864;SDS011;75122;41.650;25.368;2024-01-11T10:08:37;10.02;;;5.68;;
84864;SDS011;75122;41.650;25.368;2024-01-11T10:11:03;15.50;;;6.50;;
84864;SDS011;75122;41.650;25.368;2024-01-11T10:13:29;11.63;;;5.03;;
84864;SDS011;75122;41.650;25.368;2024-01-11T10:16:11;6.55;;;4.45;;
84864;SDS011;75122;41.650;25.368;2024-01-11T10:18:41;7.88;;;4.85;;
84864;SDS011;75122;41.650;25.368;2024-01-11T10:21:07;10.13;;;5.10;;
84864;SDS011;75122;41.650;25.368;2024-01-11T10:23:34;11.65;;;5.93;;
84864;SDS011;75122;41.650;25.368;2024-01-11T10:26:01;8.30;;;5.68;;
84864;SDS011;75122;41.650;25.368;2024-01-11T10:28:27;16.55;;;7.15;;
84864;SDS011;75122;41.650;25.368;2024-01-11T10:30:53;10.98;;;6.53;;
84864;SDS011;75122;41.650;25.368;2024-01-11T10:33:20;14.27;;;7.60;;
84864;SDS011;75122;41.650;25.368;2024-01-11T10:35:47;20.33;;;7.82;;
84864;SDS011;75122;41.650;25.368;2024-01-11T10:38:16;12.02;;;7.05;;
84864;SDS011;75122;41.650;25.368;2024-01-11T10:40:42;9.07;;;5.75;;
84864;SDS011;75122;41.650;25.368;2024-01-11T10:43:09;8.85;;;5.80;;
84864;SDS011;75122;41.650;25.368;2024-01-11T10:45:40;12.45;;;6.57;;
84864;SDS011;75122;41.650;25.368;2024-01-11T10:50:37;9.30;;;5.65;;
84864;SDS011;75122;41.650;25.368;2024-01-11T10:56:04;17.23;;;5.50;;
84864;SDS011;75122;41.650;25.368;2024-01-11T10:58:32;11.38;;;5.97;;
84864;SDS011;75122;41.650;25.368;2024-01-11T11:01:00;13.20;;;6.38;;
84864;SDS011;75122;41.650;25.368;2024-01-11T11:03:30;6.80;;;4.60;;
84864;SDS011;75122;41.650;25.368;2024-01-11T11:05:59;11.40;;;5.97;;
84864;SDS011;75122;41.650;25.368;2024-01-11T11:08:25;11.23;;;4.95;;
84864;SDS011;75122;41.650;25.368;2024-01-11T11:10:55;10.63;;;5.65;;
84864;SDS011;75122;41.650;25.368;2024-01-11T11:13:22;11.18;;;5.03;;
84864;SDS011;75122;41.650;25.368;2024-01-11T11:15:48;8.40;;;4.32;;
84864;SDS011;75122;41.650;25.368;2024-01-11T11:18:14;6.05;;;3.60;;
84864;SDS011;75122;41.650;25.368;2024-01-11T11:20:40;6.28;;;3.83;;
84864;SDS011;75122;41.650;25.368;2024-01-11T11:23:10;12.05;;;4.20;;
84864;SDS011;75122;41.650;25.368;2024-01-11T11:25:36;7.72;;;4.13;;
84864;SDS011;75122;41.650;25.368;2024-01-11T11:28:03;4.45;;;2.58;;
84864;SDS011;75122;41.650;25.368;2024-01-11T11:30:32;4.63;;;2.35;;
84864;SDS011;75122;41.650;25.368;2024-01-11T11:33:11;6.65;;;3.20;;
84864;SDS011;75122;41.650;25.368;2024-01-11T11:35:41;5.05;;;2.03;;
84864;SDS011;75122;41.650;25.368;2024-01-11T11:38:08;5.68;;;2.90;;
84864;SDS011;75122;41.650;25.368;2024-01-11T11:40:41;6.20;;;3.53;;
84864;SDS011;75122;41.650;25.368;2024-01-11T11:43:10;5.25;;;2.85;;
84864;SDS011;75122;41.650;25.368;2024-01-11T11:45:35;12.50;;;3.08;;
84864;SDS011;75122;41.650;25.368;2024-01-11T11:48:11;7.43;;;3.65;;
84864;SDS011;75122;41.650;25.368;2024-01-11T11:51:06;8.38;;;4.05;;
84864;SDS011;75122;41.650;25.368;2024-01-11T11:53:33;17.60;;;6.18;;
84864;SDS011;75122;41.650;25.368;2024-01-11T11:55:59;9.30;;;4.03;;
84864;SDS011;75122;41.650;25.368;2024-01-11T11:58:25;6.80;;;3.67;;
84864;SDS011;75122;41.650;25.368;2024-01-11T12:00:52;7.63;;;3.80;;
84864;SDS011;75122;41.650;25.368;2024-01-11T12:03:19;9.70;;;3.35;;
84864;SDS011;75122;41.650;25.368;2024-01-11T12:05:45;7.80;;;3.53;;
84864;SDS011;75122;41.650;25.368;2024-01-11T12:08:10;18.63;;;8.73;;
84864;SDS011;75122;41.650;25.368;2024-01-11T12:10:36;8.57;;;4.15;;
84864;SDS011;75122;41.650;25.368;2024-01-11T12:13:04;9.88;;;4.82;;
84864;SDS011;75122;41.650;25.368;2024-01-11T12:15:31;5.43;;;2.90;;
84864;SDS011;75122;41.650;25.368;2024-01-11T12:17:57;7.25;;;3.30;;
84864;SDS011;75122;41.650;25.368;2024-01-11T12:20:23;10.98;;;4.85;;
84864;SDS011;75122;41.650;25.368;2024-01-11T12:22:49;7.57;;;2.70;;
84864;SDS011;75122;41.650;25.368;2024-01-11T12:25:14;15.82;;;4.75;;
84864;SDS011;75122;41.650;25.368;2024-01-11T12:27:40;8.88;;;4.45;;
84864;SDS011;75122;41.650;25.368;2024-01-11T12:30:06;7.72;;;3.78;;
84864;SDS011;75122;41.650;25.368;2024-01-11T12:32:34;13.05;;;5.97;;
84864;SDS011;75122;41.650;25.368;2024-01-11T12:35:00;16.88;;;6.82;;
84864;SDS011;75122;41.650;25.368;2024-01-11T12:37:25;9.73;;;4.13;;
84864;SDS011;75122;41.650;25.368;2024-01-11T12:39:58;4.40;;;2.30;;
84864;SDS011;75122;41.650;25.368;2024-01-11T12:42:24;8.02;;;4.35;;
84864;SDS011;75122;41.650;25.368;2024-01-11T12:44:51;30.25;;;15.52;;
84864;SDS011;75122;41.650;25.368;2024-01-11T12:47:17;9.02;;;2.28;;
84864;SDS011;75122;41.650;25.368;2024-01-11T12:49:45;6.05;;;3.22;;
84864;SDS011;75122;41.650;25.368;2024-01-11T12:52:15;6.32;;;2.97;;
84864;SDS011;75122;41.650;25.368;2024-01-11T12:54:51;8.02;;;3.78;;
84864;SDS011;75122;41.650;25.368;2024-01-11T12:57:20;7.90;;;2.85;;
84864;SDS011;75122;41.650;25.368;2024-01-11T12:59:47;13.45;;;5.35;;
84864;SDS011;75122;41.650;25.368;2024-01-11T13:02:13;5.65;;;2.97;;
84864;SDS011;75122;41.650;25.368;2024-01-11T13:04:39;9.75;;;5.47;;
84864;SDS011;75122;41.650;25.368;2024-01-11T13:07:06;3.08;;;2.10;;
84864;SDS011;75122;41.650;25.368;2024-01-11T13:09:32;5.25;;;2.63;;
84864;SDS011;75122;41.650;25.368;2024-01-11T13:11:58;4.90;;;2.65;;
84864;SDS011;75122;41.650;25.368;2024-01-11T13:14:26;5.65;;;2.33;;
84864;SDS011;75122;41.650;25.368;2024-01-11T13:16:53;4.13;;;1.90;;
84864;SDS011;75122;41.650;25.368;2024-01-11T13:19:18;4.32;;;2.05;;
84864;SDS011;75122;41.650;25.368;2024-01-11T13:21:43;3.65;;;2.05;;
84864;SDS011;75122;41.650;25.368;2024-01-11T13:24:09;3.65;;;2.22;;
84864;SDS011;75122;41.650;25.368;2024-01-11T13:26:35;4.93;;;2.45;;
84864;SDS011;75122;41.650;25.368;2024-01-11T13:29:04;7.82;;;3.22;;
84864;SDS011;75122;41.650;25.368;2024-01-11T13:31:30;7.03;;;3.38;;
84864;SDS011;75122;41.650;25.368;2024-01-11T13:33:57;12.23;;;2.90;;
84864;SDS011;75122;41.650;25.368;2024-01-11T13:36:23;11.13;;;3.85;;
84864;SDS011;75122;41.650;25.368;2024-01-11T13:38:48;14.35;;;6.57;;
84864;SDS011;75122;41.650;25.368;2024-01-11T13:41:15;48.70;;;18.13;;
84864;SDS011;75122;41.650;25.368;2024-01-11T13:43:42;7.75;;;2.88;;
84864;SDS011;75122;41.650;25.368;2024-01-11T13:46:08;26.63;;;12.30;;
84864;SDS011;75122;41.650;25.368;2024-01-11T13:48:34;11.32;;;4.53;;
84864;SDS011;75122;41.650;25.368;2024-01-11T13:51:00;44.33;;;14.57;;
84864;SDS011;75122;41.650;25.368;2024-01-11T13:53:28;24.38;;;7.40;;
84864;SDS011;75122;41.650;25.368;2024-01-11T13:55:53;5.97;;;1.92;;
84864;SDS011;75122;41.650;25.368;2024-01-11T13:58:18;16.98;;;7.60;;
84864;SDS011;75122;41.650;25.368;2024-01-11T14:00:44;51.60;;;23.60;;
84864;SDS011;75122;41.650;25.368;2024-01-11T14:03:09;43.80;;;16.92;;
84864;SDS011;75122;41.650;25.368;2024-01-11T14:05:36;16.77;;;4.85;;
84864;SDS011;75122;41.650;25.368;2024-01-11T14:08:02;10.38;;;5.10;;
84864;SDS011;75122;41.650;25.368;2024-01-11T14:10:30;21.92;;;13.55;;
84864;SDS011;75122;41.650;25.368;2024-01-11T14:12:57;11.00;;;4.63;;
84864;SDS011;75122;41.650;25.368;2024-01-11T14:15:25;9.40;;;4.65;;
84864;SDS011;75122;41.650;25.368;2024-01-11T14:17:51;7.40;;;2.28;;
84864;SDS011;75122;41.650;25.368;2024-01-11T14:20:16;11.10;;;2.90;;
84864;SDS011;75122;41.650;25.368;2024-01-11T14:22:43;7.47;;;4.32;;
84864;SDS011;75122;41.650;25.368;2024-01-11T14:25:14;20.05;;;6.25;;
84864;SDS011;75122;41.650;25.368;2024-01-11T14:27:41;21.02;;;11.05;;
84864;SDS011;75122;41.650;25.368;2024-01-11T14:30:07;16.45;;;8.00;;
84864;SDS011;75122;41.650;25.368;2024-01-11T14:32:32;27.70;;;12.15;;
84864;SDS011;75122;41.650;25.368;2024-01-11T14:34:58;33.58;;;16.17;;
84864;SDS011;75122;41.650;25.368;2024-01-11T14:37:28;66.05;;;37.90;;
84864;SDS011;75122;41.650;25.368;2024-01-11T14:39:54;57.13;;;33.30;;
84864;SDS011;75122;41.650;25.368;2024-01-11T14:42:19;97.88;;;55.85;;
84864;SDS011;75122;41.650;25.368;2024-01-11T14:44:44;70.47;;;37.25;;
84864;SDS011;75122;41.650;25.368;2024-01-11T14:47:10;64.80;;;36.55;;
84864;SDS011;75122;41.650;25.368;2024-01-11T14:49:36;55.13;;;31.60;;
84864;SDS011;75122;41.650;25.368;2024-01-11T14:52:01;44.63;;;24.98;;
84864;SDS011;75122;41.650;25.368;2024-01-11T14:54:27;72.05;;;35.15;;
84864;SDS011;75122;41.650;25.368;2024-01-11T14:56:52;78.30;;;42.03;;
84864;SDS011;75122;41.650;25.368;2024-01-11T14:59:18;108.72;;;51.80;;
84864;SDS011;75122;41.650;25.368;2024-01-11T15:01:43;134.07;;;62.85;;
84864;SDS011;75122;41.650;25.368;2024-01-11T15:04:09;162.23;;;72.57;;
84864;SDS011;75122;41.650;25.368;2024-01-11T15:06:34;190.57;;;91.68;;
84864;SDS011;75122;41.650;25.368;2024-01-11T15:09:00;190.23;;;83.90;;
84864;SDS011;75122;41.650;25.368;2024-01-11T15:11:25;215.43;;;100.57;;
84864;SDS011;75122;41.650;25.368;2024-01-11T15:13:52;179.00;;;87.47;;
84864;SDS011;75122;41.650;25.368;2024-01-11T15:16:17;253.35;;;117.57;;
84864;SDS011;75122;41.650;25.368;2024-01-11T15:18:44;272.63;;;137.75;;
84864;SDS011;75122;41.650;25.368;2024-01-11T15:21:11;228.73;;;113.85;;
84864;SDS011;75122;41.650;25.368;2024-01-11T15:23:37;188.23;;;92.55;;
84864;SDS011;75122;41.650;25.368;2024-01-11T15:26:03;215.60;;;107.18;;
84864;SDS011;75122;41.650;25.368;2024-01-11T15:28:28;219.63;;;109.47;;
84864;SDS011;75122;41.650;25.368;2024-01-11T15:30:54;209.77;;;100.72;;
84864;SDS011;75122;41.650;25.368;2024-01-11T15:33:19;201.18;;;87.20;;
84864;SDS011;75122;41.650;25.368;2024-01-11T15:35:44;198.98;;;90.40;;
84864;SDS011;75122;41.650;25.368;2024-01-11T15:38:11;182.15;;;81.28;;
84864;SDS011;75122;41.650;25.368;2024-01-11T15:40:36;186.25;;;85.38;;
84864;SDS011;75122;41.650;25.368;2024-01-11T15:43:05;186.45;;;91.55;;
84864;SDS011;75122;41.650;25.368;2024-01-11T15:45:31;190.20;;;94.28;;
84864;SDS011;75122;41.650;25.368;2024-01-11T15:47:57;201.30;;;99.18;;
84864;SDS011;75122;41.650;25.368;2024-01-11T15:50:22;269.38;;;131.25;;
84864;SDS011;75122;41.650;25.368;2024-01-11T15:52:48;237.23;;;109.50;;
84864;SDS011;75122;41.650;25.368;2024-01-11T15:55:13;128.25;;;58.78;;
84864;SDS011;75122;41.650;25.368;2024-01-11T15:57:39;119.03;;;57.28;;
84864;SDS011;75122;41.650;25.368;2024-01-11T16:00:04;135.20;;;65.03;;
84864;SDS011;75122;41.650;25.368;2024-01-11T16:02:30;131.27;;;63.80;;
84864;SDS011;75122;41.650;25.368;2024-01-11T16:04:56;137.75;;;68.68;;
84864;SDS011;75122;41.650;25.368;2024-01-11T16:07:22;70.30;;;31.17;;
84864;SDS011;75122;41.650;25.368;2024-01-11T16:09:48;29.25;;;14.18;;
84864;SDS011;75122;41.650;25.368;2024-01-11T16:12:14;35.28;;;16.08;;
84864;SDS011;75122;41.650;25.368;2024-01-11T16:14:42;32.15;;;13.55;;
84864;SDS011;75122;41.650;25.368;2024-01-11T16:17:09;29.50;;;11.40;;
84864;SDS011;75122;41.650;25.368;2024-01-11T16:19:34;20.35;;;10.40;;
84864;SDS011;75122;41.650;25.368;2024-01-11T16:22:01;22.23;;;11.55;;
84864;SDS011;75122;41.650;25.368;2024-01-11T16:24:28;27.10;;;13.50;;
84864;SDS011;75122;41.650;25.368;2024-01-11T16:26:54;28.52;;;14.60;;
84864;SDS011;75122;41.650;25.368;2024-01-11T16:29:19;36.35;;;15.07;;
84864;SDS011;75122;41.650;25.368;2024-01-11T16:31:45;26.80;;;13.52;;
84864;SDS011;75122;41.650;25.368;2024-01-11T16:34:10;49.15;;;20.35;;
84864;SDS011;75122;41.650;25.368;2024-01-11T16:36:37;59.13;;;23.60;;
84864;SDS011;75122;41.650;25.368;2024-01-11T16:39:03;58.78;;;20.67;;
84864;SDS011;75122;41.650;25.368;2024-01-11T16:41:33;40.95;;;16.05;;
84864;SDS011;75122;41.650;25.368;2024-01-11T16:43:59;56.45;;;25.10;;